sensor_id;sensor_type;location;lat;lon;timestamp;P1;durP1;ratioP1;P2;durP2;ratioP2
74160;SDS011;62512;-46.434;168.382;2022-08-30T00:00:05;2.6;;;1.5;;
74160;SDS011;62512;-46.434;168.382;2022-08-30T00:01:02;1.8;;;1.2;;
74160;SDS011;62512;-46.434;168.382;2022-08-30T00:02:02;2.5;;;1.3;;
74160;SDS011;62512;-46.434;168.382;2022-08-30T00:03:03;2.3;;;1.3;;
74160;SDS011;62512;-46.434;168.382;2022-08-30T00:04:02;3.1;;;1.8;;
74160;SDS011;62512;-46.434;168.382;2022-08-30T00:05:02;2.1;;;1.5;;
74160;SDS011;62512;-46.434;168.382;2022-08-30T00:06:03;2.0;;;1.3;;
74160;SDS011;62512;-46.434;168.382;2022-08-30T00:07:02;3.7;;;1.1;;
74160;SDS011;62512;-46.434;168.382;2022-08-30T00:08:02;2.0;;;1.3;;
74160;SDS011;62512;-46.434;168.382;2022-08-30T00:09:02;1.4;;;1.0;;
74160;SDS011;62512;-46.434;168.382;2022-08-30T00:10:02;2.3;;;1.3;;
74160;SDS011;62512;-46.434;168.382;2022-08-30T00:11:03;1.6;;;1.4;;
74160;SDS011;62512;-46.434;168.382;2022-08-30T00:12:02;2.2;;;1.8;;
74160;SDS011;62512;-46.434;168.382;2022-08-30T00:13:02;2.1;;;1.5;;
74160;SDS011;62512;-46.434;168.382;2022-08-30T00:14:02;1.8;;;1.5;;
74160;SDS011;62512;-46.434;168.382;2022-08-30T00:16:02;2.5;;;1.1;;
74160;SDS011;62512;-46.434;168.382;2022-08-30T00:17:02;1.7;;;1.2;;
74160;SDS011;62512;-46.434;168.382;2022-08-30T00:18:02;1.6;;;1.2;;
74160;SDS011;62512;-46.434;168.382;2022-08-30T00:19:02;2.2;;;1.3;;
74160;SDS011;62512;-46.434;168.382;2022-08-30T00:20:04;2.6;;;1.2;;
74160;SDS011;62512;-46.434;168.382;2022-08-30T00:21:03;2.3;;;1.3;;
74160;SDS011;62512;-46.434;168.382;2022-08-30T00:22:02;2.8;;;1.4;;
74160;SDS011;62512;-46.434;168.382;2022-08-30T00:23:03;1.6;;;0.9;;
74160;SDS011;62512;-46.434;168.382;2022-08-30T00:24:02;2.6;;;1.3;;
74160;SDS011;62512;-46.434;168.382;2022-08-30T00:25:02;1.5;;;1.3;;
74160;SDS011;62512;-46.434;168.382;2022-08-30T00:26:02;1.4;;;1.2;;
74160;SDS011;62512;-46.434;168.382;2022-08-30T00:27:02;1.9;;;1.2;;
74160;SDS011;62512;-46.434;168.382;2022-08-30T00:28:02;1.6;;;1.1;;
74160;SDS011;62512;-46.434;168.382;2022-08-30T00:29:02;1.9;;;1.4;;
74160;SDS011;62512;-46.434;168.382;2022-08-30T00:30:02;2.8;;;1.2;;
74160;SDS011;62512;-46.434;168.382;2022-08-30T00:31:03;2.0;;;1.2;;
74160;SDS011;62512;-46.434;168.382;2022-08-30T00:32:02;1.9;;;1.1;;
74160;SDS011;62512;-46.434;168.382;2022-08-30T00:33:02;2.0;;;1.1;;
74160;SDS011;62512;-46.434;168.382;2022-08-30T00:34:02;2.6;;;1.5;;
74160;SDS011;62512;-46.434;168.382;2022-08-30T00:35:03;1.3;;;1.2;;
74160;SDS011;62512;-46.434;168.382;2022-08-30T00:36:02;1.9;;;1.1;;
74160;SDS011;62512;-46.434;168.382;2022-08-30T00:37:02;2.2;;;1.1;;
74160;SDS011;62512;-46.434;168.382;2022-08-30T00:38:02;2.6;;;1.2;;
74160;SDS011;62512;-46.434;168.382;2022-08-30T00:40:03;2.8;;;1.3;;
74160;SDS011;62512;-46.434;168.382;2022-08-30T00:41:02;2.4;;;1.3;;
74160;SDS011;62512;-46.434;168.382;2022-08-30T00:42:02;3.2;;;1.2;;
74160;SDS011;62512;-46.434;168.382;2022-08-30T00:43:05;2.5;;;1.1;;
74160;SDS011;62512;-46.434;168.382;2022-08-30T00:44:02;2.1;;;1.3;;
74160;SDS011;62512;-46.434;168.382;2022-08-30T00:45:18;2.2;;;1.2;;
74160;SDS011;62512;-46.434;168.382;2022-08-30T00:47:02;3.1;;;1.2;;
74160;SDS011;62512;-46.434;168.382;2022-08-30T00:48:03;2.1;;;1.1;;
74160;SDS011;62512;-46.434;168.382;2022-08-30T00:50:03;3.9;;;1.0;;
74160;SDS011;62512;-46.434;168.382;2022-08-30T00:51:04;1.7;;;1.1;;
74160;SDS011;62512;-46.434;168.382;2022-08-30T00:52:03;1.7;;;1.4;;
74160;SDS011;62512;-46.434;168.382;2022-08-30T00:53:06;1.6;;;1.0;;
74160;SDS011;62512;-46.434;168.382;2022-08-30T00:54:03;1.8;;;0.8;;
74160;SDS011;62512;-46.434;168.382;2022-08-30T00:55:03;1.8;;;1.2;;
74160;SDS011;62512;-46.434;168.382;2022-08-30T00:56:03;2.3;;;1.8;;
74160;SDS011;62512;-46.434;168.382;2022-08-30T00:57:02;1.6;;;1.5;;
74160;SDS011;62512;-46.434;168.382;2022-08-30T00:58:05;0.8;;;0.7;;
74160;SDS011;62512;-46.434;168.382;2022-08-30T00:59:03;1.3;;;0.8;;
74160;SDS011;62512;-46.434;168.382;2022-08-30T01:00:04;1.2;;;0.8;;
74160;SDS011;62512;-46.434;168.382;2022-08-30T01:01:04;2.4;;;0.7;;
74160;SDS011;62512;-46.434;168.382;2022-08-30T01:02:02;0.8;;;0.6;;
74160;SDS011;62512;-46.434;168.382;2022-08-30T01:03:02;1.3;;;0.7;;
74160;SDS011;62512;-46.434;168.382;2022-08-30T01:04:03;1.4;;;0.7;;
74160;SDS011;62512;-46.434;168.382;2022-08-30T01:05:04;1.3;;;0.8;;
74160;SDS011;62512;-46.434;168.382;2022-08-30T01:06:03;2.4;;;0.8;;
74160;SDS011;62512;-46.434;168.382;2022-08-30T01:07:02;1.6;;;1.2;;
74160;SDS011;62512;-46.434;168.382;2022-08-30T01:08:02;1.8;;;1.3;;
74160;SDS011;62512;-46.434;168.382;2022-08-30T01:09:03;1.7;;;1.3;;
74160;SDS011;62512;-46.434;168.382;2022-08-30T01:10:03;2.4;;;1.2;;
74160;SDS011;62512;-46.434;168.382;2022-08-30T01:12:03;1.7;;;0.9;;
74160;SDS011;62512;-46.434;168.382;2022-08-30T01:13:02;2.3;;;1.2;;
74160;SDS011;62512;-46.434;168.382;2022-08-30T01:14:02;1.5;;;1.1;;
74160;SDS011;62512;-46.434;168.382;2022-08-30T01:15:02;2.7;;;1.4;;
74160;SDS011;62512;-46.434;168.382;2022-08-30T01:16:02;2.3;;;1.2;;
74160;SDS011;62512;-46.434;168.382;2022-08-30T01:18:03;2.5;;;1.2;;
74160;SDS011;62512;-46.434;168.382;2022-08-30T01:19:02;1.4;;;1.2;;
74160;SDS011;62512;-46.434;168.382;2022-08-30T01:20:06;3.1;;;1.2;;
74160;SDS011;62512;-46.434;168.382;2022-08-30T01:22:09;1.4;;;1.0;;
74160;SDS011;62512;-46.434;168.382;2022-08-30T01:23:10;2.4;;;1.2;;
74160;SDS011;62512;-46.434;168.382;2022-08-30T01:24:04;2.6;;;1.3;;
74160;SDS011;62512;-46.434;168.382;2022-08-30T01:25:03;1.5;;;1.2;;
74160;SDS011;62512;-46.434;168.382;2022-08-30T01:26:03;2.0;;;1.3;;
74160;SDS011;62512;-46.434;168.382;2022-08-30T01:27:02;1.8;;;1.1;;
74160;SDS011;62512;-46.434;168.382;2022-08-30T01:28:04;1.7;;;1.0;;
74160;SDS011;62512;-46.434;168.382;2022-08-30T01:29:05;1.5;;;1.0;;
74160;SDS011;62512;-46.434;168.382;2022-08-30T01:30:03;2.2;;;1.3;;
74160;SDS011;62512;-46.434;168.382;2022-08-30T01:31:02;2.0;;;1.1;;
74160;SDS011;62512;-46.434;168.382;2022-08-30T01:32:04;1.4;;;1.0;;
74160;SDS011;62512;-46.434;168.382;2022-08-30T01:33:03;2.7;;;1.5;;
74160;SDS011;62512;-46.434;168.382;2022-08-30T01:34:03;3.1;;;1.1;;
74160;SDS011;62512;-46.434;168.382;2022-08-30T01:35:02;2.0;;;1.2;;
74160;SDS011;62512;-46.434;168.382;2022-08-30T01:36:05;1.3;;;0.9;;
74160;SDS011;62512;-46.434;168.382;2022-08-30T01:37:02;1.8;;;0.9;;
74160;SDS011;62512;-46.434;168.382;2022-08-30T01:38:02;1.4;;;0.8;;
74160;SDS011;62512;-46.434;168.382;2022-08-30T01:39:02;1.7;;;0.8;;
74160;SDS011;62512;-46.434;168.382;2022-08-30T01:40:03;0.8;;;0.6;;
74160;SDS011;62512;-46.434;168.382;2022-08-30T01:41:11;1.6;;;1.1;;
74160;SDS011;62512;-46.434;168.382;2022-08-30T01:42:03;1.1;;;0.7;;
74160;SDS011;62512;-46.434;168.382;2022-08-30T01:43:02;1.1;;;0.8;;
74160;SDS011;62512;-46.434;168.382;2022-08-30T01:44:05;2.2;;;0.9;;
74160;SDS011;62512;-46.434;168.382;2022-08-30T01:45:03;0.9;;;0.6;;
74160;SDS011;62512;-46.434;168.382;2022-08-30T01:46:02;0.6;;;0.6;;
74160;SDS011;62512;-46.434;168.382;2022-08-30T01:48:02;1.4;;;0.7;;
74160;SDS011;62512;-46.434;168.382;2022-08-30T01:49:04;2.2;;;0.6;;
74160;SDS011;62512;-46.434;168.382;2022-08-30T01:50:03;1.3;;;0.5;;
74160;SDS011;62512;-46.434;168.382;2022-08-30T01:51:02;3.0;;;1.1;;
74160;SDS011;62512;-46.434;168.382;2022-08-30T01:53:02;2.5;;;1.0;;
74160;SDS011;62512;-46.434;168.382;2022-08-30T01:55:02;1.5;;;0.8;;
74160;SDS011;62512;-46.434;168.382;2022-08-30T01:56:02;2.4;;;0.8;;
74160;SDS011;62512;-46.434;168.382;2022-08-30T01:57:02;2.2;;;0.7;;
74160;SDS011;62512;-46.434;168.382;2022-08-30T01:58:02;1.6;;;0.8;;
74160;SDS011;62512;-46.434;168.382;2022-08-30T01:59:02;1.2;;;0.8;;
74160;SDS011;62512;-46.434;168.382;2022-08-30T02:00:05;1.4;;;1.0;;
74160;SDS011;62512;-46.434;168.382;2022-08-30T02:01:02;2.3;;;0.9;;
74160;SDS011;62512;-46.434;168.382;2022-08-30T02:02:03;2.2;;;0.7;;
74160;SDS011;62512;-46.434;168.382;2022-08-30T02:03:02;0.7;;;0.7;;
74160;SDS011;62512;-46.434;168.382;2022-08-30T02:04:02;0.8;;;0.6;;
74160;SDS011;62512;-46.434;168.382;2022-08-30T02:06:03;0.9;;;0.6;;
74160;SDS011;62512;-46.434;168.382;2022-08-30T02:07:02;1.5;;;0.6;;
74160;SDS011;62512;-46.434;168.382;2022-08-30T02:08:02;1.3;;;0.5;;
74160;SDS011;62512;-46.434;168.382;2022-08-30T02:09:02;0.9;;;0.5;;
74160;SDS011;62512;-46.434;168.382;2022-08-30T02:10:02;1.3;;;1.0;;
74160;SDS011;62512;-46.434;168.382;2022-08-30T02:11:02;2.3;;;0.8;;
74160;SDS011;62512;-46.434;168.382;2022-08-30T02:12:02;1.6;;;0.7;;
74160;SDS011;62512;-46.434;168.382;2022-08-30T02:13:02;4.2;;;2.1;;
74160;SDS011;62512;-46.434;168.382;2022-08-30T02:14:02;3.5;;;2.0;;
74160;SDS011;62512;-46.434;168.382;2022-08-30T02:15:02;2.1;;;1.4;;
74160;SDS011;62512;-46.434;168.382;2022-08-30T02:18:02;1.9;;;0.6;;
74160;SDS011;62512;-46.434;168.382;2022-08-30T02:19:02;0.9;;;0.6;;
74160;SDS011;62512;-46.434;168.382;2022-08-30T02:20:03;1.5;;;0.6;;
74160;SDS011;62512;-46.434;168.382;2022-08-30T02:21:02;2.6;;;1.0;;
74160;SDS011;62512;-46.434;168.382;2022-08-30T02:22:02;1.1;;;0.7;;
74160;SDS011;62512;-46.434;168.382;2022-08-30T02:23:02;1.0;;;0.7;;
74160;SDS011;62512;-46.434;168.382;2022-08-30T02:24:02;2.0;;;0.8;;
74160;SDS011;62512;-46.434;168.382;2022-08-30T02:25:04;1.0;;;0.5;;
74160;SDS011;62512;-46.434;168.382;2022-08-30T02:26:02;0.4;;;0.3;;
74160;SDS011;62512;-46.434;168.382;2022-08-30T02:28:02;0.8;;;0.7;;
74160;SDS011;62512;-46.434;168.382;2022-08-30T02:29:03;1.4;;;0.9;;
74160;SDS011;62512;-46.434;168.382;2022-08-30T02:30:05;2.4;;;0.7;;
74160;SDS011;62512;-46.434;168.382;2022-08-30T02:31:02;0.8;;;0.6;;
74160;SDS011;62512;-46.434;168.382;2022-08-30T02:32:02;1.6;;;0.5;;
74160;SDS011;62512;-46.434;168.382;2022-08-30T02:33:02;1.6;;;0.7;;
74160;SDS011;62512;-46.434;168.382;2022-08-30T02:34:02;2.8;;;1.4;;
74160;SDS011;62512;-46.434;168.382;2022-08-30T02:35:02;3.1;;;1.1;;
74160;SDS011;62512;-46.434;168.382;2022-08-30T02:37:02;2.7;;;0.7;;
74160;SDS011;62512;-46.434;168.382;2022-08-30T02:39:02;1.3;;;0.6;;
74160;SDS011;62512;-46.434;168.382;2022-08-30T02:40:02;1.2;;;0.6;;
74160;SDS011;62512;-46.434;168.382;2022-08-30T02:42:02;1.5;;;0.6;;
74160;SDS011;62512;-46.434;168.382;2022-08-30T02:43:02;0.8;;;0.5;;
74160;SDS011;62512;-46.434;168.382;2022-08-30T02:45:02;3.8;;;1.3;;
74160;SDS011;62512;-46.434;168.382;2022-08-30T02:46:02;2.5;;;1.0;;
74160;SDS011;62512;-46.434;168.382;2022-08-30T02:47:02;2.6;;;1.0;;
74160;SDS011;62512;-46.434;168.382;2022-08-30T02:49:02;1.0;;;0.5;;
74160;SDS011;62512;-46.434;168.382;2022-08-30T02:50:03;1.0;;;0.5;;
74160;SDS011;62512;-46.434;168.382;2022-08-30T02:51:06;0.8;;;0.6;;
74160;SDS011;62512;-46.434;168.382;2022-08-30T02:52:03;0.8;;;0.6;;
74160;SDS011;62512;-46.434;168.382;2022-08-30T02:53:02;1.3;;;0.5;;
74160;SDS011;62512;-46.434;168.382;2022-08-30T02:54:02;1.1;;;0.5;;
74160;SDS011;62512;-46.434;168.382;2022-08-30T02:55:03;1.7;;;0.6;;
74160;SDS011;62512;-46.434;168.382;2022-08-30T02:56:02;1.1;;;0.6;;
74160;SDS011;62512;-46.434;168.382;2022-08-30T02:57:02;1.9;;;1.1;;
74160;SDS011;62512;-46.434;168.382;2022-08-30T02:58:02;3.2;;;0.9;;
74160;SDS011;62512;-46.434;168.382;2022-08-30T02:59:02;3.4;;;1.9;;
74160;SDS011;62512;-46.434;168.382;2022-08-30T03:00:05;1.5;;;0.8;;
74160;SDS011;62512;-46.434;168.382;2022-08-30T03:01:02;1.9;;;0.6;;
74160;SDS011;62512;-46.434;168.382;2022-08-30T03:02:02;2.0;;;0.9;;
74160;SDS011;62512;-46.434;168.382;2022-08-30T03:03:03;1.4;;;0.7;;
74160;SDS011;62512;-46.434;168.382;2022-08-30T03:04:02;2.2;;;0.8;;
74160;SDS011;62512;-46.434;168.382;2022-08-30T03:05:02;1.1;;;0.5;;
74160;SDS011;62512;-46.434;168.382;2022-08-30T03:06:02;0.7;;;0.4;;
74160;SDS011;62512;-46.434;168.382;2022-08-30T03:08:02;0.5;;;0.4;;
74160;SDS011;62512;-46.434;168.382;2022-08-30T03:10:02;2.0;;;0.8;;
74160;SDS011;62512;-46.434;168.382;2022-08-30T03:11:02;1.2;;;0.6;;
74160;SDS011;62512;-46.434;168.382;2022-08-30T03:12:02;1.3;;;0.8;;
74160;SDS011;62512;-46.434;168.382;2022-08-30T03:13:02;2.0;;;0.8;;
74160;SDS011;62512;-46.434;168.382;2022-08-30T03:16:02;0.7;;;0.6;;
74160;SDS011;62512;-46.434;168.382;2022-08-30T03:19:02;3.0;;;1.7;;
74160;SDS011;62512;-46.434;168.382;2022-08-30T03:20:02;4.1;;;2.2;;
74160;SDS011;62512;-46.434;168.382;2022-08-30T03:21:02;3.4;;;1.9;;
74160;SDS011;62512;-46.434;168.382;2022-08-30T03:22:03;3.8;;;2.0;;
74160;SDS011;62512;-46.434;168.382;2022-08-30T03:23:02;1.9;;;1.1;;
74160;SDS011;62512;-46.434;168.382;2022-08-30T03:24:02;2.5;;;1.3;;
74160;SDS011;62512;-46.434;168.382;2022-08-30T03:25:02;3.5;;;1.5;;
74160;SDS011;62512;-46.434;168.382;2022-08-30T03:26:02;2.6;;;1.3;;
74160;SDS011;62512;-46.434;168.382;2022-08-30T03:27:02;3.6;;;1.2;;
74160;SDS011;62512;-46.434;168.382;2022-08-30T03:28:02;1.3;;;0.8;;
74160;SDS011;62512;-46.434;168.382;2022-08-30T03:29:02;2.0;;;1.3;;
74160;SDS011;62512;-46.434;168.382;2022-08-30T03:30:02;1.5;;;1.0;;
74160;SDS011;62512;-46.434;168.382;2022-08-30T03:31:02;1.0;;;0.7;;
74160;SDS011;62512;-46.434;168.382;2022-08-30T03:32:04;1.4;;;0.5;;
74160;SDS011;62512;-46.434;168.382;2022-08-30T03:33:02;1.0;;;0.5;;
74160;SDS011;62512;-46.434;168.382;2022-08-30T03:34:02;2.3;;;0.5;;
74160;SDS011;62512;-46.434;168.382;2022-08-30T03:35:02;2.2;;;0.5;;
74160;SDS011;62512;-46.434;168.382;2022-08-30T03:36:02;0.8;;;0.4;;
74160;SDS011;62512;-46.434;168.382;2022-08-30T03:37:02;0.6;;;0.3;;
74160;SDS011;62512;-46.434;168.382;2022-08-30T03:38:02;1.8;;;0.5;;
74160;SDS011;62512;-46.434;168.382;2022-08-30T03:39:02;1.2;;;0.6;;
74160;SDS011;62512;-46.434;168.382;2022-08-30T03:41:02;1.4;;;0.6;;
74160;SDS011;62512;-46.434;168.382;2022-08-30T03:42:02;0.7;;;0.5;;
74160;SDS011;62512;-46.434;168.382;2022-08-30T03:43:02;1.5;;;0.5;;
74160;SDS011;62512;-46.434;168.382;2022-08-30T03:44:02;1.0;;;0.6;;
74160;SDS011;62512;-46.434;168.382;2022-08-30T03:45:03;1.4;;;0.5;;
74160;SDS011;62512;-46.434;168.382;2022-08-30T03:49:02;1.3;;;0.4;;
74160;SDS011;62512;-46.434;168.382;2022-08-30T03:50:03;1.4;;;0.5;;
74160;SDS011;62512;-46.434;168.382;2022-08-30T03:52:02;2.3;;;0.6;;
74160;SDS011;62512;-46.434;168.382;2022-08-30T03:53:02;1.1;;;0.4;;
74160;SDS011;62512;-46.434;168.382;2022-08-30T03:57:02;2.5;;;1.2;;
74160;SDS011;62512;-46.434;168.382;2022-08-30T04:00:03;5.0;;;1.5;;
74160;SDS011;62512;-46.434;168.382;2022-08-30T04:01:02;2.2;;;0.6;;
74160;SDS011;62512;-46.434;168.382;2022-08-30T04:02:02;2.8;;;0.8;;
74160;SDS011;62512;-46.434;168.382;2022-08-30T04:05:02;1.2;;;0.6;;
74160;SDS011;62512;-46.434;168.382;2022-08-30T04:06:02;1.5;;;0.7;;
74160;SDS011;62512;-46.434;168.382;2022-08-30T04:07:02;1.3;;;0.6;;
74160;SDS011;62512;-46.434;168.382;2022-08-30T04:08:02;1.2;;;0.4;;
74160;SDS011;62512;-46.434;168.382;2022-08-30T04:09:02;1.2;;;0.5;;
74160;SDS011;62512;-46.434;168.382;2022-08-30T04:10:02;0.9;;;0.5;;
74160;SDS011;62512;-46.434;168.382;2022-08-30T04:11:02;3.0;;;0.5;;
74160;SDS011;62512;-46.434;168.382;2022-08-30T04:12:02;1.7;;;0.5;;
74160;SDS011;62512;-46.434;168.382;2022-08-30T04:15:02;1.9;;;0.7;;
74160;SDS011;62512;-46.434;168.382;2022-08-30T04:16:02;0.7;;;0.5;;
74160;SDS011;62512;-46.434;168.382;2022-08-30T04:17:02;1.5;;;0.5;;
74160;SDS011;62512;-46.434;168.382;2022-08-30T04:18:02;1.4;;;0.7;;
74160;SDS011;62512;-46.434;168.382;2022-08-30T04:19:02;1.7;;;0.7;;
74160;SDS011;62512;-46.434;168.382;2022-08-30T04:20:02;1.9;;;0.7;;
74160;SDS011;62512;-46.434;168.382;2022-08-30T04:21:02;0.7;;;0.5;;
74160;SDS011;62512;-46.434;168.382;2022-08-30T04:22:02;1.4;;;0.8;;
74160;SDS011;62512;-46.434;168.382;2022-08-30T04:23:02;1.4;;;0.5;;
74160;SDS011;62512;-46.434;168.382;2022-08-30T04:24:02;1.3;;;0.5;;
74160;SDS011;62512;-46.434;168.382;2022-08-30T04:25:02;2.9;;;0.7;;
74160;SDS011;62512;-46.434;168.382;2022-08-30T04:26:02;1.2;;;0.5;;
74160;SDS011;62512;-46.434;168.382;2022-08-30T04:27:02;1.3;;;0.4;;
74160;SDS011;62512;-46.434;168.382;2022-08-30T04:28:03;1.1;;;0.5;;
74160;SDS011;62512;-46.434;168.382;2022-08-30T04:29:02;1.6;;;0.5;;
74160;SDS011;62512;-46.434;168.382;2022-08-30T04:30:02;1.2;;;0.4;;
74160;SDS011;62512;-46.434;168.382;2022-08-30T04:31:09;3.2;;;0.7;;
74160;SDS011;62512;-46.434;168.382;2022-08-30T04:32:02;1.0;;;0.7;;
74160;SDS011;62512;-46.434;168.382;2022-08-30T04:33:02;2.8;;;1.3;;
74160;SDS011;62512;-46.434;168.382;2022-08-30T04:34:02;2.5;;;1.4;;
74160;SDS011;62512;-46.434;168.382;2022-08-30T04:35:02;3.1;;;1.4;;
74160;SDS011;62512;-46.434;168.382;2022-08-30T04:36:04;3.9;;;1.2;;
74160;SDS011;62512;-46.434;168.382;2022-08-30T04:37:02;2.7;;;1.3;;
74160;SDS011;62512;-46.434;168.382;2022-08-30T04:38:02;2.4;;;1.3;;
74160;SDS011;62512;-46.434;168.382;2022-08-30T04:39:02;1.5;;;0.9;;
74160;SDS011;62512;-46.434;168.382;2022-08-30T04:40:02;4.5;;;1.8;;
74160;SDS011;62512;-46.434;168.382;2022-08-30T04:41:08;4.1;;;1.7;;
74160;SDS011;62512;-46.434;168.382;2022-08-30T04:42:02;3.1;;;1.3;;
74160;SDS011;62512;-46.434;168.382;2022-08-30T04:43:02;3.5;;;1.8;;
74160;SDS011;62512;-46.434;168.382;2022-08-30T04:44:02;2.3;;;1.2;;
74160;SDS011;62512;-46.434;168.382;2022-08-30T04:45:04;4.3;;;1.1;;
74160;SDS011;62512;-46.434;168.382;2022-08-30T04:46:05;3.8;;;1.5;;
74160;SDS011;62512;-46.434;168.382;2022-08-30T04:47:02;2.5;;;1.3;;
74160;SDS011;62512;-46.434;168.382;2022-08-30T04:48:02;1.7;;;1.1;;
74160;SDS011;62512;-46.434;168.382;2022-08-30T04:49:02;3.4;;;1.4;;
74160;SDS011;62512;-46.434;168.382;2022-08-30T04:50:02;3.3;;;1.4;;
74160;SDS011;62512;-46.434;168.382;2022-08-30T04:51:04;3.2;;;1.3;;
74160;SDS011;62512;-46.434;168.382;2022-08-30T04:52:02;1.9;;;1.1;;
74160;SDS011;62512;-46.434;168.382;2022-08-30T04:54:02;2.0;;;1.1;;
74160;SDS011;62512;-46.434;168.382;2022-08-30T04:55:02;1.8;;;1.0;;
74160;SDS011;62512;-46.434;168.382;2022-08-30T04:56:08;2.6;;;1.1;;
74160;SDS011;62512;-46.434;168.382;2022-08-30T04:57:01;2.6;;;1.0;;
74160;SDS011;62512;-46.434;168.382;2022-08-30T04:58:02;2.2;;;1.3;;
74160;SDS011;62512;-46.434;168.382;2022-08-30T04:59:02;2.0;;;1.3;;
74160;SDS011;62512;-46.434;168.382;2022-08-30T05:00:04;1.5;;;0.9;;
74160;SDS011;62512;-46.434;168.382;2022-08-30T05:01:02;2.7;;;0.9;;
74160;SDS011;62512;-46.434;168.382;2022-08-30T05:02:02;2.2;;;1.1;;
74160;SDS011;62512;-46.434;168.382;2022-08-30T05:03:02;4.2;;;1.3;;
74160;SDS011;62512;-46.434;168.382;2022-08-30T05:04:02;2.0;;;1.0;;
74160;SDS011;62512;-46.434;168.382;2022-08-30T05:05:02;2.3;;;1.1;;
74160;SDS011;62512;-46.434;168.382;2022-08-30T05:06:01;4.0;;;1.2;;
74160;SDS011;62512;-46.434;168.382;2022-08-30T05:07:02;3.3;;;1.3;;
74160;SDS011;62512;-46.434;168.382;2022-08-30T05:08:02;2.7;;;1.1;;
74160;SDS011;62512;-46.434;168.382;2022-08-30T05:09:02;3.6;;;1.2;;
74160;SDS011;62512;-46.434;168.382;2022-08-30T05:10:02;1.5;;;1.0;;
74160;SDS011;62512;-46.434;168.382;2022-08-30T05:11:04;2.3;;;1.1;;
74160;SDS011;62512;-46.434;168.382;2022-08-30T05:12:02;3.2;;;1.3;;
74160;SDS011;62512;-46.434;168.382;2022-08-30T05:13:01;2.6;;;1.4;;
74160;SDS011;62512;-46.434;168.382;2022-08-30T05:14:01;3.1;;;1.3;;
74160;SDS011;62512;-46.434;168.382;2022-08-30T05:15:02;5.4;;;1.9;;
74160;SDS011;62512;-46.434;168.382;2022-08-30T05:16:04;3.3;;;1.5;;
74160;SDS011;62512;-46.434;168.382;2022-08-30T05:17:02;4.5;;;1.5;;
74160;SDS011;62512;-46.434;168.382;2022-08-30T05:18:03;2.8;;;1.5;;
74160;SDS011;62512;-46.434;168.382;2022-08-30T05:19:02;2.6;;;1.5;;
74160;SDS011;62512;-46.434;168.382;2022-08-30T05:20:02;10.3;;;4.0;;
74160;SDS011;62512;-46.434;168.382;2022-08-30T05:21:05;5.4;;;2.1;;
74160;SDS011;62512;-46.434;168.382;2022-08-30T05:22:02;3.0;;;2.0;;
74160;SDS011;62512;-46.434;168.382;2022-08-30T05:23:02;2.8;;;1.3;;
74160;SDS011;62512;-46.434;168.382;2022-08-30T05:24:02;2.7;;;1.2;;
74160;SDS011;62512;-46.434;168.382;2022-08-30T05:25:02;2.5;;;1.4;;
74160;SDS011;62512;-46.434;168.382;2022-08-30T05:26:07;3.6;;;1.2;;
74160;SDS011;62512;-46.434;168.382;2022-08-30T05:27:02;3.6;;;1.0;;
74160;SDS011;62512;-46.434;168.382;2022-08-30T05:28:02;1.8;;;1.1;;
74160;SDS011;62512;-46.434;168.382;2022-08-30T05:29:02;3.6;;;1.2;;
74160;SDS011;62512;-46.434;168.382;2022-08-30T05:30:02;2.7;;;1.1;;
74160;SDS011;62512;-46.434;168.382;2022-08-30T05:31:02;3.4;;;1.3;;
74160;SDS011;62512;-46.434;168.382;2022-08-30T05:32:02;3.8;;;1.4;;
74160;SDS011;62512;-46.434;168.382;2022-08-30T05:33:02;2.5;;;1.1;;
74160;SDS011;62512;-46.434;168.382;2022-08-30T05:34:02;4.0;;;1.1;;
74160;SDS011;62512;-46.434;168.382;2022-08-30T05:36:05;3.3;;;1.3;;
74160;SDS011;62512;-46.434;168.382;2022-08-30T05:37:02;3.3;;;1.3;;
74160;SDS011;62512;-46.434;168.382;2022-08-30T05:38:01;3.4;;;1.1;;
74160;SDS011;62512;-46.434;168.382;2022-08-30T05:39:02;5.5;;;1.4;;
74160;SDS011;62512;-46.434;168.382;2022-08-30T05:40:03;3.6;;;1.3;;
74160;SDS011;62512;-46.434;168.382;2022-08-30T05:41:02;3.0;;;1.4;;
74160;SDS011;62512;-46.434;168.382;2022-08-30T05:42:01;3.5;;;1.1;;
74160;SDS011;62512;-46.434;168.382;2022-08-30T05:43:01;2.0;;;1.1;;
74160;SDS011;62512;-46.434;168.382;2022-08-30T05:44:03;2.3;;;1.2;;
74160;SDS011;62512;-46.434;168.382;2022-08-30T05:45:02;2.3;;;1.2;;
74160;SDS011;62512;-46.434;168.382;2022-08-30T05:46:04;2.2;;;1.3;;
74160;SDS011;62512;-46.434;168.382;2022-08-30T05:47:01;3.5;;;1.3;;
74160;SDS011;62512;-46.434;168.382;2022-08-30T05:48:02;2.4;;;1.1;;
74160;SDS011;62512;-46.434;168.382;2022-08-30T05:49:03;4.3;;;1.6;;
74160;SDS011;62512;-46.434;168.382;2022-08-30T05:50:03;3.3;;;1.3;;
74160;SDS011;62512;-46.434;168.382;2022-08-30T05:51:03;2.3;;;1.2;;
74160;SDS011;62512;-46.434;168.382;2022-08-30T05:52:03;2.1;;;1.1;;
74160;SDS011;62512;-46.434;168.382;2022-08-30T05:53:01;2.5;;;1.2;;
74160;SDS011;62512;-46.434;168.382;2022-08-30T05:54:01;4.0;;;1.5;;
74160;SDS011;62512;-46.434;168.382;2022-08-30T05:55:02;5.2;;;2.4;;
74160;SDS011;62512;-46.434;168.382;2022-08-30T05:56:03;2.5;;;1.6;;
74160;SDS011;62512;-46.434;168.382;2022-08-30T05:57:01;5.7;;;1.8;;
74160;SDS011;62512;-46.434;168.382;2022-08-30T05:58:01;2.9;;;1.6;;
74160;SDS011;62512;-46.434;168.382;2022-08-30T05:59:03;3.8;;;1.6;;
74160;SDS011;62512;-46.434;168.382;2022-08-30T06:00:03;3.1;;;1.6;;
74160;SDS011;62512;-46.434;168.382;2022-08-30T06:01:02;2.7;;;1.3;;
74160;SDS011;62512;-46.434;168.382;2022-08-30T06:02:01;3.2;;;1.5;;
74160;SDS011;62512;-46.434;168.382;2022-08-30T06:03:01;3.7;;;1.5;;
74160;SDS011;62512;-46.434;168.382;2022-08-30T06:04:04;2.3;;;1.4;;
74160;SDS011;62512;-46.434;168.382;2022-08-30T06:05:03;2.1;;;1.4;;
74160;SDS011;62512;-46.434;168.382;2022-08-30T06:06:01;4.3;;;1.8;;
74160;SDS011;62512;-46.434;168.382;2022-08-30T06:07:02;2.3;;;1.7;;
74160;SDS011;62512;-46.434;168.382;2022-08-30T06:08:02;3.0;;;1.7;;
74160;SDS011;62512;-46.434;168.382;2022-08-30T06:09:03;2.4;;;1.3;;
74160;SDS011;62512;-46.434;168.382;2022-08-30T06:12:02;4.6;;;1.7;;
74160;SDS011;62512;-46.434;168.382;2022-08-30T06:14:02;2.8;;;1.6;;
74160;SDS011;62512;-46.434;168.382;2022-08-30T06:15:02;2.9;;;1.7;;
74160;SDS011;62512;-46.434;168.382;2022-08-30T06:16:02;4.6;;;2.2;;
74160;SDS011;62512;-46.434;168.382;2022-08-30T06:17:02;4.3;;;2.3;;
74160;SDS011;62512;-46.434;168.382;2022-08-30T06:18:02;4.2;;;2.8;;
74160;SDS011;62512;-46.434;168.382;2022-08-30T06:19:01;5.2;;;2.8;;
74160;SDS011;62512;-46.434;168.382;2022-08-30T06:20:02;3.5;;;2.2;;
74160;SDS011;62512;-46.434;168.382;2022-08-30T06:21:01;3.7;;;2.2;;
74160;SDS011;62512;-46.434;168.382;2022-08-30T06:22:01;5.1;;;2.5;;
74160;SDS011;62512;-46.434;168.382;2022-08-30T06:23:01;3.8;;;2.1;;
74160;SDS011;62512;-46.434;168.382;2022-08-30T06:24:03;4.5;;;2.1;;
74160;SDS011;62512;-46.434;168.382;2022-08-30T06:25:03;6.5;;;2.3;;
74160;SDS011;62512;-46.434;168.382;2022-08-30T06:26:04;4.1;;;2.2;;
74160;SDS011;62512;-46.434;168.382;2022-08-30T06:27:01;2.5;;;1.5;;
74160;SDS011;62512;-46.434;168.382;2022-08-30T06:28:03;3.4;;;1.9;;
74160;SDS011;62512;-46.434;168.382;2022-08-30T06:29:01;2.4;;;1.4;;
74160;SDS011;62512;-46.434;168.382;2022-08-30T06:30:02;5.9;;;2.0;;
74160;SDS011;62512;-46.434;168.382;2022-08-30T06:31:05;4.2;;;2.0;;
74160;SDS011;62512;-46.434;168.382;2022-08-30T06:32:04;4.8;;;1.9;;
74160;SDS011;62512;-46.434;168.382;2022-08-30T06:33:02;3.1;;;1.9;;
74160;SDS011;62512;-46.434;168.382;2022-08-30T06:34:02;6.4;;;1.7;;
74160;SDS011;62512;-46.434;168.382;2022-08-30T06:35:02;3.5;;;1.6;;
74160;SDS011;62512;-46.434;168.382;2022-08-30T06:36:03;4.3;;;1.6;;
74160;SDS011;62512;-46.434;168.382;2022-08-30T06:37:01;5.6;;;1.9;;
74160;SDS011;62512;-46.434;168.382;2022-08-30T06:38:02;4.2;;;2.0;;
74160;SDS011;62512;-46.434;168.382;2022-08-30T06:39:02;3.3;;;2.0;;